Time;durP1;ratioP1;P1;durP2;ratioP2;P2;SDS_P1;SDS_P2;PMS_P1;PMS_P2;Temp;Humidity;BMP_temperature;BMP_pressure;BME280_temperature;BME280_humidity;BME280_pressure;Samples;Min_cycle;Max_cycle;Signal;HPM_P1;HPM_P2
2021/12/28 00:01:04;;;;;;;27.83;5.80;;;-3.70;99.90;;;;;;5020279;28;20188;-66
2021/12/28 00:03:30;;;;;;;23.07;5.43;;;-3.70;99.90;;;;;;5016351;28;20191;-66
2021/12/28 00:05:56;;;;;;;17.17;4.20;;;-3.80;99.90;;;;;;5023337;28;20709;-66
2021/12/28 00:08:22;;;;;;;27.93;5.93;;;-3.70;99.90;;;;;;5023700;28;20173;-66
2021/12/28 00:10:48;;;;;;;12.10;3.23;;;;;;;;;;5020210;28;20199;-66
2021/12/28 00:13:16;;;;;;;19.87;4.53;;;-3.70;99.90;;;;;;5016342;28;20191;-66
2021/12/28 00:18:25;;;;;;;26.47;5.60;;;-3.80;99.90;;;;;;5016196;28;20203;-66
2021/12/28 00:20:57;;;;;;;29.97;6.23;;;-3.80;99.90;;;;;;5019717;28;20180;-66
2021/12/28 00:23:27;;;;;;;39.87;8.40;;;-3.70;99.90;;;;;;5016440;28;20188;-66
2021/12/28 00:25:54;;;;;;;34.07;7.27;;;-3.80;99.90;;;;;;5015498;28;20189;-66
2021/12/28 00:28:21;;;;;;;23.20;5.47;;;-3.60;99.90;;;;;;5018754;28;20177;-66
2021/12/28 00:30:47;;;;;;;19.57;4.87;;;-4.00;99.90;;;;;;5009682;28;20242;-65
2021/12/28 00:33:14;;;;;;;30.57;6.27;;;-4.00;99.90;;;;;;5018021;28;20196;-66
2021/12/28 00:35:41;;;;;;;13.90;3.70;;;-3.90;99.90;;;;;;5017404;28;20619;-66
2021/12/28 00:38:14;;;;;;;27.97;6.30;;;-4.00;99.90;;;;;;5021152;28;20312;-66
2021/12/28 00:40:40;;;;;;;30.53;6.60;;;-3.90;99.90;;;;;;5023010;28;20299;-66
2021/12/28 00:43:06;;;;;;;16.33;4.27;;;-3.90;99.90;;;;;;5019828;28;20196;-66
2021/12/28 00:45:31;;;;;;;16.33;4.30;;;-4.00;99.90;;;;;;5018409;28;20580;-66
2021/12/28 00:47:57;;;;;;;17.37;4.50;;;-4.40;99.90;;;;;;5023272;28;20787;-66
2021/12/28 00:50:24;;;;;;;11.33;3.67;;;-4.00;99.90;;;;;;5022884;28;20251;-65
2021/12/28 00:52:49;;;;;;;27.97;6.17;;;-4.00;99.90;;;;;;5018055;28;20267;-66
2021/12/28 00:55:17;;;;;;;24.47;5.53;;;-4.10;99.90;;;;;;5016431;28;20188;-66
2021/12/28 00:57:44;;;;;;;11.33;3.33;;;-3.10;99.90;;;;;;5024248;28;20267;-65
2021/12/28 01:00:13;;;;;;;26.80;5.70;;;-4.10;99.90;;;;;;5015080;28;20216;-66
2021/12/28 01:02:39;;;;;;;21.63;5.20;;;-4.00;99.90;;;;;;5017973;28;20197;-66
2021/12/28 01:05:06;;;;;;;34.40;7.47;;;-4.30;99.90;;;;;;5023003;28;20246;-66
2021/12/28 01:07:31;;;;;;;22.77;5.40;;;-4.10;99.90;;;;;;5018789;28;20184;-66
2021/12/28 01:09:57;;;;;;;25.40;5.90;;;-4.20;99.90;;;;;;5016763;28;20212;-66
2021/12/28 01:12:23;;;;;;;23.75;5.10;;;-4.20;99.90;;;;;;5015934;28;20184;-66
2021/12/28 01:14:49;;;;;;;20.30;4.70;;;-4.20;99.90;;;;;;5015514;28;20420;-66
2021/12/28 01:17:14;;;;;;;17.37;4.47;;;-4.30;99.90;;;;;;5018795;28;20193;-66
2021/12/28 01:19:40;;;;;;;8.37;2.97;;;-4.00;99.90;;;;;;5020268;28;20695;-65
2021/12/28 01:22:06;;;;;;;25.03;5.70;;;-4.20;99.90;;;;;;5019589;28;20196;-65
2021/12/28 01:24:32;;;;;;;13.20;3.70;;;-4.30;99.90;;;;;;5015582;28;20853;-65
2021/12/28 01:26:58;;;;;;;30.80;6.60;;;-4.30;99.90;;;;;;5020468;28;20219;-66
2021/12/28 01:29:24;;;;;;;28.27;6.27;;;-4.30;99.90;;;;;;5013555;28;20247;-66
2021/12/28 01:31:50;;;;;;;21.63;5.17;;;-4.20;99.90;;;;;;5016533;28;20191;-66
2021/12/28 01:34:16;;;;;;;33.30;6.97;;;-4.20;99.90;;;;;;5017338;28;20188;-66
2021/12/28 01:36:41;;;;;;;15.23;4.00;;;-4.30;99.90;;;;;;5021921;28;20724;-66
2021/12/28 01:39:08;;;;;;;23.07;5.43;;;-4.50;99.90;;;;;;5020828;28;20801;-65
2021/12/28 01:41:34;;;;;;;34.90;7.33;;;-4.30;99.90;;;;;;5019400;28;20196;-65
2021/12/28 01:44:04;;;;;;;37.37;7.80;;;-4.30;99.90;;;;;;5022454;28;20204;-66
2021/12/28 01:46:31;;;;;;;25.17;5.63;;;-4.30;99.90;;;;;;5018154;28;20740;-65
2021/12/28 01:48:57;;;;;;;24.07;5.53;;;-4.40;99.90;;;;;;5023463;28;20207;-66
2021/12/28 01:51:24;;;;;;;17.13;4.47;;;-4.50;99.90;;;;;;5024447;28;20176;-65
2021/12/28 01:53:52;;;;;;;25.30;5.83;;;-4.40;99.90;;;;;;5020534;28;20199;-66
2021/12/28 01:56:22;;;;;;;18.30;4.50;;;-4.30;99.90;;;;;;5021757;28;20845;-65
2021/12/28 01:58:49;;;;;;;16.23;4.30;;;-4.60;99.90;;;;;;5026323;28;20212;-65
2021/12/28 02:01:15;;;;;;;26.80;6.03;;;-4.50;99.90;;;;;;5021775;28;20263;-66
2021/12/28 02:03:43;;;;;;;22.20;5.17;;;-4.60;99.90;;;;;;5025106;28;20189;-65
2021/12/28 02:06:09;;;;;;;20.97;4.73;;;-4.40;99.90;;;;;;5019928;28;20184;-65
2021/12/28 02:08:35;;;;;;;32.80;6.43;;;;;;;;;;5021008;28;20200;-66
2021/12/28 02:11:01;;;;;;;20.37;4.87;;;-4.70;99.90;;;;;;5017815;28;20183;-65
2021/12/28 02:13:27;;;;;;;38.80;8.00;;;-4.60;99.90;;;;;;5023369;28;20184;-65
2021/12/28 02:15:56;;;;;;;58.50;11.17;;;-4.60;99.90;;;;;;5017693;28;20326;-65
2021/12/28 02:18:24;;;;;;;18.27;4.50;;;-4.60;99.90;;;;;;5036030;28;20669;-66
2021/12/28 02:20:51;;;;;;;22.27;5.20;;;-4.70;99.90;;;;;;5035093;28;20231;-66
2021/12/28 02:23:17;;;;;;;22.03;5.13;;;-4.60;99.90;;;;;;5018837;28;20180;-66
2021/12/28 02:25:43;;;;;;;28.10;5.93;;;-4.60;99.90;;;;;;5017103;28;20367;-65
2021/12/28 02:28:11;;;;;;;20.83;4.63;;;-4.60;99.90;;;;;;5018962;28;20190;-66
2021/12/28 02:30:39;;;;;;;10.70;3.40;;;-4.70;99.90;;;;;;5019239;28;20273;-66
2021/12/28 02:33:05;;;;;;;27.03;5.77;;;-4.70;99.90;;;;;;5025269;28;20272;-65
2021/12/28 02:35:32;;;;;;;25.07;5.60;;;-4.70;99.90;;;;;;5024436;28;20207;-65
2021/12/28 02:37:57;;;;;;;23.00;5.50;;;-4.70;99.90;;;;;;5023022;28;20196;-66
2021/12/28 02:40:26;;;;;;;14.33;3.97;;;-4.70;99.90;;;;;;5024629;28;20216;-65
2021/12/28 02:42:53;;;;;;;27.23;6.17;;;-4.80;99.90;;;;;;5021361;28;20206;-65
2021/12/28 02:45:22;;;;;;;26.07;5.77;;;-4.80;99.90;;;;;;5016179;28;20220;-65
2021/12/28 02:47:48;;;;;;;15.37;3.83;;;-4.70;99.90;;;;;;5022217;28;20206;-65
2021/12/28 02:50:23;;;;;;;33.73;7.07;;;-4.90;99.90;;;;;;5019450;28;20207;-66
2021/12/28 02:52:50;;;;;;;16.67;4.20;;;-4.70;99.90;;;;;;5025859;28;20280;-65
2021/12/28 02:55:19;;;;;;;14.37;3.77;;;-5.00;99.90;;;;;;5023145;28;20192;-65
2021/12/28 02:57:53;;;;;;;12.50;3.40;;;-5.00;99.90;;;;;;5021382;28;20203;-65
2021/12/28 03:01:00;;;;;;;38.97;7.90;;;-4.80;99.90;;;;;;5017543;28;20280;-65
2021/12/28 03:03:28;;;;;;;22.77;5.33;;;-5.00;99.90;;;;;;4964775;28;20821;-66
2021/12/28 03:05:55;;;;;;;33.93;6.83;;;-4.80;99.90;;;;;;4974426;28;20228;-66
2021/12/28 03:08:23;;;;;;;26.73;6.07;;;-4.80;99.90;;;;;;4997141;28;20188;-65
2021/12/28 03:10:49;;;;;;;18.60;4.63;;;-4.30;99.90;;;;;;5027159;28;20789;-65
2021/12/28 03:13:23;;;;;;;30.07;6.27;;;-4.80;99.90;;;;;;5022847;28;20238;-65
2021/12/28 03:15:48;;;;;;;17.70;4.37;;;-4.80;99.90;;;;;;5022120;28;20188;-65
2021/12/28 03:18:14;;;;;;;23.63;5.43;;;-4.90;99.90;;;;;;5015599;28;20231;-65
2021/12/28 03:20:40;;;;;;;24.83;5.50;;;-4.90;99.90;;;;;;5016128;28;20656;-66
2021/12/28 03:23:06;;;;;;;26.03;5.73;;;-4.80;99.90;;;;;;5018799;28;20188;-66
2021/12/28 03:25:32;;;;;;;20.53;4.87;;;-4.90;99.90;;;;;;5016910;28;20204;-66
2021/12/28 03:28:00;;;;;;;27.53;5.97;;;-4.80;99.90;;;;;;5017984;28;20277;-65
2021/12/28 03:30:26;;;;;;;23.03;5.17;;;-4.80;99.90;;;;;;5048551;22;20238;-48
2021/12/28 03:32:51;;;;;;;25.97;5.10;;;-4.90;99.90;;;;;;5050821;28;20199;-48
2021/12/28 03:35:17;;;;;;;42.20;8.93;;;-5.00;99.90;;;;;;5026253;28;21339;-48
2021/12/28 03:37:43;;;;;;;35.63;7.40;;;-5.00;99.90;;;;;;5035016;28;20190;-48
2021/12/28 03:40:11;;;;;;;19.23;4.27;;;-5.00;99.90;;;;;;5030897;28;20187;-48
2021/12/28 03:42:37;;;;;;;24.83;5.27;;;-4.90;99.90;;;;;;5033224;28;21429;-48
2021/12/28 03:45:05;;;;;;;41.13;8.47;;;-4.90;99.90;;;;;;5031370;28;20223;-48
2021/12/28 03:47:30;;;;;;;37.63;7.83;;;-4.90;99.90;;;;;;5030877;28;20172;-48
2021/12/28 03:49:56;;;;;;;29.87;6.17;;;-5.10;99.90;;;;;;5036669;28;20190;-48
2021/12/28 03:52:21;;;;;;;25.67;5.27;;;-5.00;99.90;;;;;;5034113;28;20615;-48
2021/12/28 03:54:47;;;;;;;19.80;4.13;;;-4.90;99.90;;;;;;5031001;28;20176;-48
2021/12/28 03:57:13;;;;;;;21.40;4.47;;;-4.90;99.90;;;;;;5031610;28;20211;-48
2021/12/28 03:59:38;;;;;;;25.47;5.30;;;-4.90;99.90;;;;;;5031313;28;20183;-48
2021/12/28 04:02:04;;;;;;;20.07;4.47;;;-5.00;99.90;;;;;;5031784;28;20618;-48
2021/12/28 04:04:30;;;;;;;60.57;12.03;;;-4.90;99.90;;;;;;5026845;28;20601;-48
2021/12/28 04:06:56;;;;;;;32.93;6.90;;;-4.70;99.90;;;;;;5026999;28;20210;-48
2021/12/28 04:09:45;;;;;;;35.33;7.37;;;-5.00;99.90;;;;;;5023529;28;20187;-48
2021/12/28 04:12:07;;;;;;;27.00;5.63;;;-5.00;99.90;;;;;;5030337;28;20202;-48
2021/12/28 04:14:33;;;;;;;46.13;9.50;;;-5.10;99.90;;;;;;5029027;28;20191;-48
2021/12/28 04:16:58;;;;;;;33.57;7.50;;;-5.10;99.90;;;;;;5029943;28;20180;-48
2021/12/28 04:19:24;;;;;;;33.67;7.00;;;-5.10;99.90;;;;;;5029015;28;20191;-48
2021/12/28 04:21:50;;;;;;;36.67;7.83;;;;;;;;;;5029343;28;20175;-48
2021/12/28 04:24:16;;;;;;;36.37;7.40;;;-5.10;99.90;;;;;;5025666;28;20814;-48
2021/12/28 04:26:41;;;;;;;15.80;3.40;;;-5.10;99.90;;;;;;5031060;28;20207;-48
2021/12/28 04:29:07;;;;;;;35.70;7.77;;;-5.10;99.90;;;;;;5032847;28;20639;-48
2021/12/28 04:31:32;;;;;;;20.50;4.17;;;;;;;;;;5030883;28;20789;-48
2021/12/28 04:33:58;;;;;;;23.93;4.93;;;-5.10;99.90;;;;;;5034887;28;20723;-48
2021/12/28 04:36:24;;;;;;;25.00;5.20;;;-5.10;99.90;;;;;;5037048;28;20660;-48
2021/12/28 04:38:49;;;;;;;38.83;8.17;;;-5.10;99.90;;;;;;5027109;28;20183;-48
2021/12/28 04:41:15;;;;;;;40.13;8.57;;;-4.70;99.90;;;;;;5033508;28;20191;-48
2021/12/28 04:43:41;;;;;;;21.80;4.57;;;-5.10;99.90;;;;;;5030950;28;20235;-48
2021/12/28 04:46:06;;;;;;;30.90;6.60;;;-5.10;99.90;;;;;;5027116;28;22079;-48
2021/12/28 04:48:33;;;;;;;35.70;6.80;;;-5.00;99.90;;;;;;5037482;28;20726;-48
2021/12/28 04:50:59;;;;;;;16.87;3.83;;;-4.90;99.90;;;;;;5029858;28;20255;-48
2021/12/28 04:53:26;;;;;;;42.57;8.90;;;-5.10;99.90;;;;;;5032433;28;20624;-48
2021/12/28 04:55:52;;;;;;;36.00;7.63;;;-5.10;99.90;;;;;;5022815;28;20528;-48
2021/12/28 04:58:18;;;;;;;23.97;4.90;;;-5.40;99.90;;;;;;5030951;28;20183;-48
2021/12/28 05:00:45;;;;;;;28.23;5.80;;;-5.30;99.90;;;;;;5027468;28;20215;-48
2021/12/28 05:03:12;;;;;;;26.93;5.60;;;-5.10;99.90;;;;;;5032114;28;20207;-48
2021/12/28 05:05:43;;;;;;;41.37;8.77;;;-5.40;99.90;;;;;;5032851;28;20236;-48
2021/12/28 05:08:10;;;;;;;42.17;9.20;;;-5.10;99.90;;;;;;5027604;28;20171;-48
2021/12/28 05:10:36;;;;;;;31.90;6.93;;;-4.60;99.90;;;;;;5029802;28;20548;-48
2021/12/28 05:13:02;;;;;;;33.10;7.00;;;-5.00;99.90;;;;;;5027866;28;20208;-49
2021/12/28 05:15:28;;;;;;;29.57;6.40;;;-5.10;99.90;;;;;;5031357;28;20706;-49
2021/12/28 05:17:53;;;;;;;36.17;7.27;;;-5.10;99.90;;;;;;5030246;28;20263;-49
2021/12/28 05:20:19;;;;;;;19.57;4.60;;;-5.10;99.90;;;;;;5033363;28;20188;-49
2021/12/28 05:22:44;;;;;;;46.53;9.97;;;-5.10;99.90;;;;;;5030671;28;21797;-49
2021/12/28 05:25:10;;;;;;;30.50;6.43;;;-5.10;99.90;;;;;;5026592;28;20212;-48
2021/12/28 05:27:36;;;;;;;21.80;4.60;;;-5.00;99.90;;;;;;5028375;28;20188;-48
2021/12/28 05:30:04;;;;;;;35.27;7.50;;;-5.00;99.90;;;;;;5027594;28;20196;-49
2021/12/28 05:32:30;;;;;;;32.67;6.80;;;-4.90;99.90;;;;;;5034288;28;20207;-48
2021/12/28 05:34:55;;;;;;;25.87;5.37;;;-5.10;99.90;;;;;;5033620;28;20191;-49
2021/12/28 05:37:21;;;;;;;32.57;7.23;;;-5.00;99.90;;;;;;5031443;28;20647;-49
2021/12/28 05:39:46;;;;;;;26.17;5.30;;;-5.10;99.90;;;;;;5031648;28;20956;-49
2021/12/28 05:42:12;;;;;;;24.97;5.20;;;-5.10;99.90;;;;;;5031937;28;20286;-49
2021/12/28 05:44:37;;;;;;;34.00;7.60;;;-5.20;99.90;;;;;;5031450;28;20291;-48
2021/12/28 05:47:03;;;;;;;39.53;8.17;;;-5.00;99.90;;;;;;5030820;28;20274;-49
2021/12/28 05:49:28;;;;;;;20.83;4.37;;;-5.00;99.90;;;;;;5038056;28;20176;-49
2021/12/28 05:51:54;;;;;;;38.23;7.67;;;-5.00;99.90;;;;;;5029954;28;20222;-49
2021/12/28 05:54:20;;;;;;;30.83;6.47;;;-5.10;99.90;;;;;;5026762;28;20537;-49
2021/12/28 05:56:46;;;;;;;21.47;4.33;;;-4.30;99.90;;;;;;5033817;28;20188;-49
2021/12/28 05:59:11;;;;;;;39.63;8.73;;;-5.10;99.90;;;;;;5033062;28;20502;-49
2021/12/28 06:01:38;;;;;;;30.50;6.33;;;-5.00;99.90;;;;;;5031488;28;20256;-49
2021/12/28 06:04:04;;;;;;;35.77;7.47;;;-5.10;99.90;;;;;;5030776;28;20299;-49
2021/12/28 06:06:30;;;;;;;29.87;6.53;;;-5.10;99.90;;;;;;5036852;28;20246;-50
2021/12/28 06:08:56;;;;;;;46.60;9.80;;;-5.10;99.90;;;;;;5027637;28;21760;-48
2021/12/28 06:11:21;;;;;;;47.40;9.40;;;-5.10;99.90;;;;;;5035003;28;20187;-49
2021/12/28 06:13:47;;;;;;;37.47;8.13;;;-4.90;99.90;;;;;;5026850;28;20199;-50
2021/12/28 06:16:14;;;;;;;29.47;6.20;;;-5.10;99.90;;;;;;5027870;28;20188;-49
2021/12/28 06:18:40;;;;;;;23.93;5.27;;;-4.90;99.90;;;;;;5027751;28;20203;-49
2021/12/28 06:21:06;;;;;;;37.83;7.80;;;-5.00;99.90;;;;;;5033618;28;20188;-49
2021/12/28 06:23:31;;;;;;;42.03;9.50;;;-4.90;99.90;;;;;;5025537;28;20231;-49
2021/12/28 06:25:57;;;;;;;26.57;5.57;;;-4.90;99.90;;;;;;5033130;28;20501;-48
2021/12/28 06:28:23;;;;;;;21.70;5.07;;;-5.00;99.90;;;;;;5027855;28;20338;-49
2021/12/28 06:30:49;;;;;;;22.87;4.73;;;-5.60;99.90;;;;;;5034484;28;20188;-49
2021/12/28 06:33:15;;;;;;;22.20;4.83;;;-4.90;99.90;;;;;;5032333;28;20202;-50
2021/12/28 06:35:41;;;;;;;32.93;7.00;;;-4.80;99.90;;;;;;5037679;28;20180;-49
2021/12/28 06:38:07;;;;;;;55.63;11.80;;;-4.90;99.90;;;;;;5029392;28;22966;-49
2021/12/28 06:40:32;;;;;;;30.90;6.60;;;-5.00;99.90;;;;;;5032805;28;20564;-49
2021/12/28 06:42:58;;;;;;;31.97;6.43;;;-4.90;99.90;;;;;;5031062;28;20298;-49
2021/12/28 06:45:24;;;;;;;11.13;2.87;;;-4.80;99.90;;;;;;5024861;28;20235;-49
2021/12/28 06:47:49;;;;;;;39.20;8.27;;;-5.10;99.90;;;;;;5030070;28;20176;-49
2021/12/28 06:50:15;;;;;;;37.67;7.80;;;-4.90;99.90;;;;;;5030121;28;20828;-49
2021/12/28 06:52:41;;;;;;;26.73;5.87;;;-5.20;99.90;;;;;;5028012;28;20258;-49
2021/12/28 06:55:08;;;;;;;25.03;5.43;;;-4.80;99.90;;;;;;5037952;28;20198;-49
2021/12/28 06:57:33;;;;;;;29.20;6.20;;;-4.70;99.90;;;;;;5027930;28;20222;-49
2021/12/28 06:59:59;;;;;;;44.07;9.30;;;-4.90;99.90;;;;;;5030193;28;20191;-49
2021/12/28 07:02:25;;;;;;;35.00;7.30;;;-5.30;99.90;;;;;;5031843;28;20207;-50
2021/12/28 07:04:52;;;;;;;29.80;6.23;;;-4.80;99.90;;;;;;5034916;28;20215;-48
2021/12/28 07:07:18;;;;;;;20.37;4.23;;;-4.80;99.90;;;;;;5038206;28;20628;-48
2021/12/28 07:09:44;;;;;;;36.97;7.60;;;-4.70;99.90;;;;;;5030301;28;20179;-49
2021/12/28 07:12:10;;;;;;;25.93;5.37;;;-4.60;99.90;;;;;;5032297;28;20318;-48
2021/12/28 07:14:36;;;;;;;38.53;8.33;;;-4.40;99.90;;;;;;5034093;28;20186;-48
2021/12/28 07:17:02;;;;;;;37.87;8.10;;;-4.60;99.90;;;;;;5028567;28;20192;-48
2021/12/28 07:19:27;;;;;;;31.93;6.83;;;-4.60;99.90;;;;;;5029008;28;20184;-48
2021/12/28 07:21:53;;;;;;;23.60;5.00;;;-4.50;99.90;;;;;;5039693;28;20568;-48
2021/12/28 07:24:19;;;;;;;22.07;4.53;;;-4.90;99.90;;;;;;5033765;28;20253;-49
2021/12/28 07:26:45;;;;;;;23.77;4.77;;;-4.60;99.90;;;;;;5022401;28;20184;-49
2021/12/28 07:29:11;;;;;;;30.33;6.47;;;-4.60;99.90;;;;;;5031183;28;20439;-49
2021/12/28 07:31:37;;;;;;;36.93;7.73;;;;;;;;;;5033891;28;20183;-49
2021/12/28 07:34:03;;;;;;;45.50;9.07;;;-4.70;99.90;;;;;;5035311;28;20176;-49
2021/12/28 07:36:28;;;;;;;40.40;8.30;;;-4.50;99.90;;;;;;5028525;28;20453;-49
2021/12/28 07:38:54;;;;;;;15.07;2.97;;;-4.50;99.90;;;;;;5026693;28;20262;-49
2021/12/28 07:41:20;;;;;;;43.33;9.43;;;-4.40;99.00;;;;;;5029748;28;20211;-51
2021/12/28 07:43:46;;;;;;;25.70;5.23;;;-4.40;99.90;;;;;;5037465;28;20299;-49
2021/12/28 07:46:12;;;;;;;37.67;7.93;;;-4.50;99.90;;;;;;5026977;28;20681;-49
2021/12/28 07:48:37;;;;;;;16.57;3.67;;;-3.70;99.90;;;;;;5033312;28;20190;-49
2021/12/28 07:51:04;;;;;;;23.03;4.77;;;-4.30;99.90;;;;;;5030638;28;20242;-49
2021/12/28 07:53:29;;;;;;;60.13;12.33;;;-4.30;99.80;;;;;;5026880;28;20208;-49
2021/12/28 07:55:57;;;;;;;26.33;5.47;;;-4.10;99.90;;;;;;5030868;28;20588;-49
2021/12/28 07:58:24;;;;;;;37.20;7.90;;;-4.20;99.90;;;;;;5026661;28;20215;-49
2021/12/28 08:00:49;;;;;;;25.97;5.17;;;-4.30;99.90;;;;;;5025242;28;20186;-49
2021/12/28 08:03:15;;;;;;;20.00;4.10;;;-4.10;98.90;;;;;;5029966;28;20215;-49
2021/12/28 08:05:40;;;;;;;37.40;8.13;;;-3.50;99.90;;;;;;5036144;28;20706;-49
2021/12/28 08:08:06;;;;;;;34.20;7.87;;;-4.00;98.50;;;;;;5020479;28;20237;-49
2021/12/28 08:10:32;;;;;;;37.00;7.77;;;-4.00;94.50;;;;;;5040209;28;20227;-49
2021/12/28 08:12:57;;;;;;;43.87;8.90;;;-4.10;93.00;;;;;;5024428;28;20210;-49
2021/12/28 08:15:25;;;;;;;28.33;6.23;;;-4.00;92.40;;;;;;5025225;28;20257;-49
2021/12/28 08:17:51;;;;;;;45.43;9.53;;;-4.00;92.50;;;;;;5025545;28;20283;-49
2021/12/28 08:20:18;;;;;;;29.70;6.40;;;-3.90;91.10;;;;;;5016520;28;20192;-49
2021/12/28 08:22:45;;;;;;;23.75;5.45;;;-3.90;92.40;;;;;;5022341;28;20771;-49
2021/12/28 08:25:13;;;;;;;42.17;8.87;;;-4.00;87.60;;;;;;5030181;28;20215;-48
2021/12/28 08:27:39;;;;;;;28.50;6.13;;;-3.60;83.10;;;;;;5019821;28;20180;-49
2021/12/28 08:30:07;;;;;;;34.50;7.20;;;-3.80;84.40;;;;;;5021843;28;20751;-49
2021/12/28 08:32:33;;;;;;;22.40;4.87;;;-3.70;85.10;;;;;;5036646;28;20270;-48
2021/12/28 08:34:58;;;;;;;50.57;10.47;;;-3.80;69.30;;;;;;5022191;28;20525;-49
2021/12/28 08:37:24;;;;;;;32.73;6.77;;;-3.70;81.20;;;;;;5023682;28;20243;-50
2021/12/28 08:39:50;;;;;;;24.43;5.27;;;-3.70;87.30;;;;;;5040187;28;20243;-50
2021/12/28 08:42:16;;;;;;;36.87;7.97;;;-3.50;72.20;;;;;;5024885;28;20260;-49
2021/12/28 08:44:42;;;;;;;30.03;6.27;;;-3.70;64.90;;;;;;5019988;28;20199;-50
2021/12/28 08:47:08;;;;;;;23.47;4.90;;;-3.60;63.20;;;;;;5034614;28;20190;-50
2021/12/28 08:49:33;;;;;;;34.20;7.37;;;-3.50;41.60;;;;;;5027371;28;20187;-51
2021/12/28 08:51:59;;;;;;;44.60;9.73;;;-3.40;33.10;;;;;;5039222;28;20200;-50
2021/12/28 08:54:24;;;;;;;21.97;4.53;;;-3.20;31.90;;;;;;5023997;28;20473;-50
2021/12/28 08:56:51;;;;;;;31.27;6.60;;;-3.50;25.60;;;;;;5032198;28;20194;-50
2021/12/28 08:59:18;;;;;;;49.60;10.27;;;-3.40;19.80;;;;;;5031737;28;20194;-50
2021/12/28 09:01:44;;;;;;;36.80;7.60;;;;;;;;;;5028263;28;20649;-50
2021/12/28 09:04:10;;;;;;;23.60;4.93;;;-3.80;19.00;;;;;;5024770;28;20651;-50
2021/12/28 09:06:36;;;;;;;32.43;6.87;;;-3.20;13.80;;;;;;5026343;28;20195;-50
2021/12/28 09:09:01;;;;;;;22.83;4.93;;;-3.20;13.00;;;;;;5030215;28;20636;-48
2021/12/28 09:11:27;;;;;;;33.10;6.70;;;-3.30;1.10;;;;;;5025228;28;20195;-49
2021/12/28 09:13:53;;;;;;;25.07;5.17;;;-3.30;4.90;;;;;;5028877;28;20222;-49
2021/12/28 09:16:19;;;;;;;50.90;10.10;;;-3.00;2.30;;;;;;5026747;28;20176;-49
2021/12/28 09:18:45;;;;;;;24.57;5.10;;;-3.00;1.00;;;;;;5030955;28;20187;-48
2021/12/28 09:21:11;;;;;;;24.13;4.90;;;-3.10;4.00;;;;;;5034242;28;20184;-49
2021/12/28 09:23:38;;;;;;;23.43;4.80;;;-3.00;1.50;;;;;;5032246;28;20207;-49
2021/12/28 09:26:05;;;;;;;24.43;5.30;;;-2.90;4.30;;;;;;5036454;28;20314;-49
2021/12/28 09:28:30;;;;;;;25.93;5.40;;;-2.60;1.00;;;;;;5032085;28;20180;-49
2021/12/28 09:30:56;;;;;;;27.13;6.00;;;-2.80;1.00;;;;;;5070438;23;20729;-65
2021/12/28 09:33:24;;;;;;;44.27;8.77;;;-2.30;1.00;;;;;;5055245;28;20596;-65
2021/12/28 09:35:51;;;;;;;19.97;4.93;;;-2.80;1.00;;;;;;5056723;28;20179;-65
2021/12/28 09:38:17;;;;;;;24.30;5.73;;;-2.70;2.40;;;;;;5059899;28;20194;-65
2021/12/28 09:40:43;;;;;;;17.23;4.57;;;-2.70;1.00;;;;;;5052405;28;20628;-64
2021/12/28 09:43:09;;;;;;;12.30;3.60;;;-2.60;1.00;;;;;;5058121;28;20206;-64
2021/12/28 09:45:36;;;;;;;30.60;6.93;;;-2.50;1.00;;;;;;5046745;28;20305;-65
2021/12/28 09:48:02;;;;;;;26.27;6.07;;;-2.60;1.00;;;;;;5059753;28;20305;-65
2021/12/28 09:50:31;;;;;;;26.43;5.90;;;-2.50;1.00;;;;;;5053155;28;20162;-65
2021/12/28 09:52:56;;;;;;;24.77;6.03;;;-2.50;1.00;;;;;;5049579;28;20175;-65
2021/12/28 09:55:24;;;;;;;18.63;4.93;;;-2.30;1.00;;;;;;5066054;28;20190;-65
2021/12/28 09:57:51;;;;;;;22.57;5.50;;;-2.30;1.00;;;;;;5052458;28;20184;-65
2021/12/28 10:00:18;;;;;;;25.80;5.97;;;-2.30;1.00;;;;;;5048994;28;20223;-65
2021/12/28 10:02:43;;;;;;;16.57;4.57;;;-2.10;1.00;;;;;;5048363;28;20334;-65
2021/12/28 10:05:13;;;;;;;19.73;5.13;;;-2.20;1.00;;;;;;5060710;28;20275;-65
2021/12/28 10:07:44;;;;;;;20.07;5.17;;;-2.10;1.00;;;;;;5064245;28;20330;-65
2021/12/28 10:10:10;;;;;;;48.10;9.70;;;;;;;;;;5062895;28;20221;-66
2021/12/28 10:12:42;;;;;;;39.40;8.23;;;-2.20;1.00;;;;;;5051350;28;20504;-66
2021/12/28 10:15:11;;;;;;;58.90;11.40;;;-1.60;1.00;;;;;;5044869;28;21156;-66
2021/12/28 10:17:40;;;;;;;32.40;7.17;;;-1.90;1.00;;;;;;5053934;28;20278;-66
2021/12/28 10:20:19;;;;;;;30.37;6.70;;;-1.90;1.00;;;;;;5046366;28;20253;-65
2021/12/28 10:22:53;;;;;;;32.67;7.37;;;-1.60;1.00;;;;;;5050850;28;20297;-65
2021/12/28 10:25:25;;;;;;;76.10;14.07;;;-1.60;1.00;;;;;;5043936;28;20692;-65
2021/12/28 10:27:54;;;;;;;35.80;7.63;;;-1.70;1.00;;;;;;5049889;28;20207;-66
2021/12/28 10:30:23;;;;;;;21.90;5.43;;;-1.50;1.00;;;;;;5055062;28;20337;-66
2021/12/28 10:32:57;;;;;;;8.10;2.80;;;-1.60;1.00;;;;;;5054026;28;20745;-66
2021/12/28 10:35:29;;;;;;;20.73;5.03;;;-1.50;1.00;;;;;;5053566;28;20567;-65
2021/12/28 10:38:08;;;;;;;16.07;4.37;;;-1.60;1.00;;;;;;5067896;28;20191;-64
2021/12/28 10:40:38;;;;;;;35.27;7.57;;;-1.60;1.00;;;;;;5054012;28;20203;-64
2021/12/28 10:43:12;;;;;;;44.17;9.10;;;-1.70;1.00;;;;;;5053729;28;20197;-64
2021/12/28 10:45:39;;;;;;;36.23;7.87;;;-1.60;1.00;;;;;;5047723;28;20207;-64
2021/12/28 10:48:15;;;;;;;20.30;5.17;;;-1.90;1.00;;;;;;5062372;28;20171;-65
2021/12/28 10:50:46;;;;;;;28.20;6.23;;;-1.80;1.00;;;;;;5061755;28;20206;-64
2021/12/28 10:53:20;;;;;;;40.30;8.33;;;-1.60;1.00;;;;;;5053795;28;20507;-64
2021/12/28 10:55:58;;;;;;;25.27;5.87;;;-1.80;5.10;;;;;;5059907;28;20338;-64
2021/12/28 10:58:31;;;;;;;27.53;6.17;;;-1.80;4.20;;;;;;5058047;28;20477;-64
2021/12/28 11:01:06;;;;;;;18.67;4.73;;;-1.90;3.70;;;;;;5056274;28;20560;-64
2021/12/28 11:03:34;;;;;;;35.23;7.90;;;-1.90;1.00;;;;;;5057912;28;20183;-64
2021/12/28 11:06:06;;;;;;;15.43;4.20;;;-1.90;3.40;;;;;;5057970;28;20530;-64
2021/12/28 11:08:32;;;;;;;6.40;3.00;;;-1.80;1.00;;;;;;5058830;28;20539;-64
2021/12/28 11:11:01;;;;;;;18.63;4.93;;;-1.90;1.00;;;;;;5053108;28;20202;-64
2021/12/28 11:13:29;;;;;;;43.13;8.93;;;-1.90;4.90;;;;;;5052355;28;20821;-64
2021/12/28 11:15:56;;;;;;;10.63;3.57;;;-1.90;7.10;;;;;;5056866;28;20239;-68
2021/12/28 11:18:37;;;;;;;12.40;3.90;;;-1.90;1.10;;;;;;5052416;28;20186;-62
2021/12/28 11:21:31;;;;;;;27.00;6.27;;;-1.70;1.00;;;;;;5053771;28;20521;-63
2021/12/28 11:24:03;;;;;;;27.53;6.27;;;-2.00;1.00;;;;;;5052896;28;20213;-64
2021/12/28 11:26:43;;;;;;;31.30;7.07;;;-1.80;1.00;;;;;;5059386;28;20195;-65
2021/12/28 11:29:13;;;;;;;43.17;9.00;;;-1.60;1.00;;;;;;5057134;28;20179;-67
2021/12/28 11:31:52;;;;;;;29.90;6.77;;;-1.90;1.00;;;;;;5051665;28;20186;-65
2021/12/28 11:34:23;;;;;;;24.57;5.87;;;-1.60;1.00;;;;;;5057729;28;20194;-64
2021/12/28 11:36:52;;;;;;;28.17;6.57;;;-1.60;1.00;;;;;;5056903;28;20293;-65
2021/12/28 11:39:20;;;;;;;49.63;9.90;;;-1.70;1.00;;;;;;5050102;28;20190;-65
2021/12/28 11:41:47;;;;;;;27.00;6.43;;;-1.60;1.00;;;;;;5057601;28;20174;-65
2021/12/28 11:44:15;;;;;;;51.17;10.20;;;-1.50;1.00;;;;;;5056495;28;20210;-65
2021/12/28 11:46:40;;;;;;;21.03;5.47;;;-1.60;1.00;;;;;;5051009;28;20183;-65
2021/12/28 11:49:09;;;;;;;12.37;4.10;;;-1.30;1.00;;;;;;5060362;28;20179;-64
2021/12/28 11:51:36;;;;;;;26.90;6.50;;;-1.70;1.00;;;;;;5063884;28;20190;-64
2021/12/28 11:54:06;;;;;;;28.70;6.57;;;-1.40;1.00;;;;;;5056572;28;20183;-64
2021/12/28 11:56:39;;;;;;;20.73;5.27;;;-1.30;1.00;;;;;;5053950;28;20176;-64
2021/12/28 11:59:15;;;;;;;46.67;9.77;;;-1.20;1.00;;;;;;5057657;28;21037;-65
2021/12/28 12:01:43;;;;;;;26.50;6.33;;;-0.60;1.00;;;;;;5050902;28;20194;-65
2021/12/28 12:04:30;;;;;;;37.17;7.87;;;-1.40;1.00;;;;;;5054038;28;20738;-64
2021/12/28 12:07:04;;;;;;;24.27;6.07;;;-1.10;1.00;;;;;;5055296;28;20261;-63
2021/12/28 12:09:31;;;;;;;19.27;5.00;;;-1.40;1.00;;;;;;5056889;28;20557;-63
2021/12/28 12:12:13;;;;;;;33.30;7.57;;;-1.20;1.00;;;;;;5050508;28;20182;-64
2021/12/28 12:14:50;;;;;;;42.77;9.43;;;-1.10;1.00;;;;;;5050948;28;20167;-65
2021/12/28 12:17:28;;;;;;;37.17;8.20;;;-1.30;1.00;;;;;;5058150;28;20243;-65
2021/12/28 12:19:56;;;;;;;18.10;5.37;;;-1.40;1.00;;;;;;5056226;28;20206;-66
2021/12/28 12:22:30;;;;;;;41.50;9.17;;;-1.10;1.00;;;;;;5051061;28;20202;-64
2021/12/28 12:25:02;;;;;;;65.17;12.67;;;-1.30;1.00;;;;;;5045649;28;20251;-63
2021/12/28 12:27:53;;;;;;;26.13;6.77;;;-1.10;1.00;;;;;;5046406;28;20191;-64
2021/12/28 12:30:18;;;;;;;27.77;7.37;;;-1.10;1.00;;;;;;5046536;28;20219;-65
2021/12/28 12:32:58;;;;;;;28.23;7.60;;;-1.30;1.00;;;;;;5051282;28;20187;-66
2021/12/28 12:35:38;;;;;;;40.33;9.27;;;-1.30;1.00;;;;;;5051782;28;21153;-65
2021/12/28 12:38:10;;;;;;;39.10;8.67;;;-1.00;1.00;;;;;;5050661;28;20285;-66
2021/12/28 12:41:06;;;;;;;30.63;7.47;;;-1.40;1.00;;;;;;5057247;28;20301;-66
2021/12/28 12:46:32;;;;;;;33.57;7.43;;;-1.40;7.80;;;;;;5045703;28;20226;-66
2021/12/28 12:49:04;;;;;;;28.30;7.27;;;-1.00;14.30;;;;;;5054452;28;20205;-65